sensor_id;sensor_type;location;lat;lon;timestamp;pressure;altitude;pressure_sealevel;temperature;humidity
73106;BME280;61559;50.476;15.588;2024-03-02T00:00:24;96721.52;;;8.77;99.73
73106;BME280;61559;50.476;15.588;2024-03-02T00:03:16;96720.23;;;8.78;99.70
73106;BME280;61559;50.476;15.588;2024-03-02T00:05:52;96717.48;;;8.79;99.61
73106;BME280;61559;50.476;15.588;2024-03-02T00:08:25;96715.61;;;8.80;99.57
73106;BME280;61559;50.476;15.588;2024-03-02T00:11:00;96714.46;;;8.81;99.51
73106;BME280;61559;50.476;15.588;2024-03-02T00:13:32;96714.54;;;8.81;99.49
73106;BME280;61559;50.476;15.588;2024-03-02T00:16:06;96714.44;;;8.83;99.48
73106;BME280;61559;50.476;15.588;2024-03-02T00:18:37;96717.66;;;8.84;99.38
73106;BME280;61559;50.476;15.588;2024-03-02T00:21:10;96715.42;;;8.85;99.33
73106;BME280;61559;50.476;15.588;2024-03-02T00:23:41;96716.05;;;8.86;99.32
73106;BME280;61559;50.476;15.588;2024-03-02T00:26:12;96720.56;;;8.88;99.31
73106;BME280;61559;50.476;15.588;2024-03-02T00:28:44;96717.79;;;8.88;99.18
73106;BME280;61559;50.476;15.588;2024-03-02T00:31:16;96716.55;;;8.88;99.24
73106;BME280;61559;50.476;15.588;2024-03-02T00:33:50;96717.52;;;8.88;99.23
73106;BME280;61559;50.476;15.588;2024-03-02T00:36:26;96720.73;;;8.89;99.11
73106;BME280;61559;50.476;15.588;2024-03-02T00:38:57;96720.89;;;8.89;99.26
73106;BME280;61559;50.476;15.588;2024-03-02T00:41:31;96724.55;;;8.88;99.33
73106;BME280;61559;50.476;15.588;2024-03-02T00:44:03;96720.14;;;8.88;99.35
73106;BME280;61559;50.476;15.588;2024-03-02T00:46:36;96719.80;;;8.89;99.31
73106;BME280;61559;50.476;15.588;2024-03-02T00:49:18;96717.27;;;8.90;99.11
73106;BME280;61559;50.476;15.588;2024-03-02T00:51:51;96715.20;;;8.92;99.14
73106;BME280;61559;50.476;15.588;2024-03-02T00:54:24;96715.48;;;8.92;99.02
73106;BME280;61559;50.476;15.588;2024-03-02T00:56:56;96716.73;;;8.94;98.90
73106;BME280;61559;50.476;15.588;2024-03-02T00:59:29;96721.43;;;8.94;98.84
73106;BME280;61559;50.476;15.588;2024-03-02T01:02:01;96718.67;;;8.95;98.86
73106;BME280;61559;50.476;15.588;2024-03-02T01:04:32;96718.88;;;8.96;98.77
73106;BME280;61559;50.476;15.588;2024-03-02T01:07:04;96722.83;;;8.98;98.67
73106;BME280;61559;50.476;15.588;2024-03-02T01:09:35;96719.98;;;8.98;98.51
73106;BME280;61559;50.476;15.588;2024-03-02T01:12:07;96717.23;;;8.97;98.51
73106;BME280;61559;50.476;15.588;2024-03-02T01:14:38;96718.71;;;8.98;98.42
73106;BME280;61559;50.476;15.588;2024-03-02T01:17:10;96714.27;;;8.98;98.29
73106;BME280;61559;50.476;15.588;2024-03-02T01:19:42;96718.25;;;8.99;98.15
73106;BME280;61559;50.476;15.588;2024-03-02T01:22:14;96717.77;;;9.00;98.11
73106;BME280;61559;50.476;15.588;2024-03-02T01:24:45;96717.30;;;9.01;98.02
73106;BME280;61559;50.476;15.588;2024-03-02T01:27:16;96715.54;;;9.01;98.05
73106;BME280;61559;50.476;15.588;2024-03-02T01:29:49;96714.71;;;9.03;97.88
73106;BME280;61559;50.476;15.588;2024-03-02T01:32:20;96714.95;;;9.03;97.87
73106;BME280;61559;50.476;15.588;2024-03-02T01:34:49;96714.61;;;9.04;97.79
73106;BME280;61559;50.476;15.588;2024-03-02T01:37:20;96713.77;;;9.04;97.75
73106;BME280;61559;50.476;15.588;2024-03-02T01:39:51;96710.41;;;9.04;97.61
73106;BME280;61559;50.476;15.588;2024-03-02T01:42:23;96714.91;;;9.04;97.42
73106;BME280;61559;50.476;15.588;2024-03-02T01:44:54;96713.16;;;9.05;97.34
73106;BME280;61559;50.476;15.588;2024-03-02T01:47:25;96709.83;;;9.04;97.22
73106;BME280;61559;50.476;15.588;2024-03-02T01:49:56;96713.01;;;9.05;97.12
73106;BME280;61559;50.476;15.588;2024-03-02T01:52:28;96705.60;;;9.05;96.98
73106;BME280;61559;50.476;15.588;2024-03-02T01:54:59;96706.65;;;9.06;96.78
73106;BME280;61559;50.476;15.588;2024-03-02T01:57:33;96704.60;;;9.05;96.76
73106;BME280;61559;50.476;15.588;2024-03-02T02:00:08;96705.27;;;9.06;96.70
73106;BME280;61559;50.476;15.588;2024-03-02T02:02:40;96704.34;;;9.04;96.74
73106;BME280;61559;50.476;15.588;2024-03-02T02:05:12;96701.39;;;9.02;96.65
73106;BME280;61559;50.476;15.588;2024-03-02T02:07:44;96704.48;;;9.02;96.67
73106;BME280;61559;50.476;15.588;2024-03-02T02:10:15;96707.83;;;9.03;96.58
73106;BME280;61559;50.476;15.588;2024-03-02T02:12:46;96706.89;;;9.02;96.53
73106;BME280;61559;50.476;15.588;2024-03-02T02:15:27;96706.27;;;9.01;96.48
73106;BME280;61559;50.476;15.588;2024-03-02T02:17:59;96706.49;;;8.99;96.47
73106;BME280;61559;50.476;15.588;2024-03-02T02:20:31;96705.90;;;8.98;96.54
73106;BME280;61559;50.476;15.588;2024-03-02T02:23:03;96708.46;;;8.99;96.46
73106;BME280;61559;50.476;15.588;2024-03-02T02:25:36;96708.46;;;8.98;96.46
73106;BME280;61559;50.476;15.588;2024-03-02T02:28:07;96704.14;;;8.99;96.27
73106;BME280;61559;50.476;15.588;2024-03-02T02:30:39;96704.23;;;8.99;96.16
73106;BME280;61559;50.476;15.588;2024-03-02T02:33:10;96700.10;;;8.98;96.14
73106;BME280;61559;50.476;15.588;2024-03-02T02:35:41;96700.17;;;8.96;96.08
73106;BME280;61559;50.476;15.588;2024-03-02T02:38:12;96697.67;;;8.94;96.04
73106;BME280;61559;50.476;15.588;2024-03-02T02:40:42;96694.85;;;8.93;96.02
73106;BME280;61559;50.476;15.588;2024-03-02T02:43:13;96693.11;;;8.92;95.95
73106;BME280;61559;50.476;15.588;2024-03-02T02:45:44;96693.89;;;8.93;95.83
73106;BME280;61559;50.476;15.588;2024-03-02T02:48:15;96693.80;;;8.92;95.95
73106;BME280;61559;50.476;15.588;2024-03-02T02:50:47;96687.40;;;8.92;95.89
73106;BME280;61559;50.476;15.588;2024-03-02T02:53:18;96686.92;;;8.91;95.54
73106;BME280;61559;50.476;15.588;2024-03-02T02:55:50;96690.98;;;8.90;95.46
73106;BME280;61559;50.476;15.588;2024-03-02T02:58:21;96693.92;;;8.87;95.47
73106;BME280;61559;50.476;15.588;2024-03-02T03:00:52;96695.29;;;8.87;95.67
73106;BME280;61559;50.476;15.588;2024-03-02T03:03:26;96695.02;;;8.85;95.50
73106;BME280;61559;50.476;15.588;2024-03-02T03:05:57;96697.23;;;8.86;95.53
73106;BME280;61559;50.476;15.588;2024-03-02T03:08:27;96696.03;;;8.85;95.64
73106;BME280;61559;50.476;15.588;2024-03-02T03:10:58;96699.61;;;8.82;95.55
73106;BME280;61559;50.476;15.588;2024-03-02T03:13:54;96696.53;;;8.82;95.42
73106;BME280;61559;50.476;15.588;2024-03-02T03:16:25;96697.71;;;8.82;95.16
73106;BME280;61559;50.476;15.588;2024-03-02T03:18:56;96698.44;;;8.82;95.00
73106;BME280;61559;50.476;15.588;2024-03-02T03:21:28;96701.88;;;8.82;95.02
73106;BME280;61559;50.476;15.588;2024-03-02T03:23:59;96705.42;;;8.81;95.10
73106;BME280;61559;50.476;15.588;2024-03-02T03:26:31;96702.92;;;8.80;94.91
73106;BME280;61559;50.476;15.588;2024-03-02T03:29:02;96704.89;;;8.80;95.09
73106;BME280;61559;50.476;15.588;2024-03-02T03:31:33;96700.75;;;8.79;95.32
73106;BME280;61559;50.476;15.588;2024-03-02T03:34:02;96698.25;;;8.79;95.47
73106;BME280;61559;50.476;15.588;2024-03-02T03:36:33;96699.05;;;8.77;95.54
73106;BME280;61559;50.476;15.588;2024-03-02T03:39:04;96696.48;;;8.77;95.71
73106;BME280;61559;50.476;15.588;2024-03-02T03:41:36;96700.93;;;8.76;95.70
73106;BME280;61559;50.476;15.588;2024-03-02T03:44:07;96703.81;;;8.75;95.81
73106;BME280;61559;50.476;15.588;2024-03-02T03:46:38;96704.09;;;8.74;95.47
73106;BME280;61559;50.476;15.588;2024-03-02T03:49:10;96706.52;;;8.75;95.42
73106;BME280;61559;50.476;15.588;2024-03-02T03:51:41;96708.58;;;8.75;95.34
73106;BME280;61559;50.476;15.588;2024-03-02T03:54:13;96710.91;;;8.74;95.29
73106;BME280;61559;50.476;15.588;2024-03-02T03:56:44;96710.02;;;8.72;95.30
73106;BME280;61559;50.476;15.588;2024-03-02T03:59:15;96709.84;;;8.71;95.22
73106;BME280;61559;50.476;15.588;2024-03-02T04:01:47;96711.36;;;8.70;95.33
73106;BME280;61559;50.476;15.588;2024-03-02T04:04:18;96708.59;;;8.69;95.52
73106;BME280;61559;50.476;15.588;2024-03-02T04:06:48;96708.80;;;8.69;95.38
73106;BME280;61559;50.476;15.588;2024-03-02T04:09:17;96711.53;;;8.66;95.39
73106;BME280;61559;50.476;15.588;2024-03-02T04:11:48;96714.06;;;8.63;95.49
73106;BME280;61559;50.476;15.588;2024-03-02T04:14:19;96716.59;;;8.64;95.23
73106;BME280;61559;50.476;15.588;2024-03-02T04:16:51;96717.53;;;8.66;95.01
73106;BME280;61559;50.476;15.588;2024-03-02T04:19:22;96723.06;;;8.67;94.96
73106;BME280;61559;50.476;15.588;2024-03-02T04:21:53;96720.29;;;8.68;95.11
73106;BME280;61559;50.476;15.588;2024-03-02T04:24:24;96724.27;;;8.66;95.00
73106;BME280;61559;50.476;15.588;2024-03-02T04:26:56;96723.42;;;8.65;94.93
73106;BME280;61559;50.476;15.588;2024-03-02T04:29:27;96726.66;;;8.65;94.61
73106;BME280;61559;50.476;15.588;2024-03-02T04:31:58;96731.77;;;8.67;94.62
73106;BME280;61559;50.476;15.588;2024-03-02T04:34:30;96735.11;;;8.68;94.71
73106;BME280;61559;50.476;15.588;2024-03-02T04:37:01;96733.65;;;8.68;94.71
73106;BME280;61559;50.476;15.588;2024-03-02T04:39:32;96736.83;;;8.69;94.85
73106;BME280;61559;50.476;15.588;2024-03-02T04:42:06;96743.20;;;8.68;94.96
73106;BME280;61559;50.476;15.588;2024-03-02T04:44:37;96742.80;;;8.68;95.08
73106;BME280;61559;50.476;15.588;2024-03-02T04:47:08;96744.27;;;8.68;95.03
73106;BME280;61559;50.476;15.588;2024-03-02T04:49:37;96742.11;;;8.66;94.96
73106;BME280;61559;50.476;15.588;2024-03-02T04:52:08;96740.71;;;8.64;94.90
73106;BME280;61559;50.476;15.588;2024-03-02T04:54:40;96744.24;;;8.67;94.82
73106;BME280;61559;50.476;15.588;2024-03-02T04:57:25;96746.41;;;8.68;94.88
73106;BME280;61559;50.476;15.588;2024-03-02T04:59:56;96747.13;;;8.68;94.85
73106;BME280;61559;50.476;15.588;2024-03-02T05:02:28;96750.39;;;8.69;94.70
73106;BME280;61559;50.476;15.588;2024-03-02T05:04:59;96748.07;;;8.67;94.58
73106;BME280;61559;50.476;15.588;2024-03-02T05:07:32;96749.79;;;8.66;94.39
73106;BME280;61559;50.476;15.588;2024-03-02T05:10:03;96753.13;;;8.65;94.53
73106;BME280;61559;50.476;15.588;2024-03-02T05:12:34;96757.94;;;8.66;94.76
73106;BME280;61559;50.476;15.588;2024-03-02T05:15:26;96761.20;;;8.65;94.85
73106;BME280;61559;50.476;15.588;2024-03-02T05:17:58;96762.60;;;8.65;94.91
73106;BME280;61559;50.476;15.588;2024-03-02T05:20:32;96765.42;;;8.66;94.92
73106;BME280;61559;50.476;15.588;2024-03-02T05:23:03;96773.38;;;8.65;94.95
73106;BME280;61559;50.476;15.588;2024-03-02T05:25:34;96776.81;;;8.63;94.96
73106;BME280;61559;50.476;15.588;2024-03-02T05:28:06;96776.23;;;8.61;95.09
73106;BME280;61559;50.476;15.588;2024-03-02T05:30:37;96774.32;;;8.61;95.12
73106;BME280;61559;50.476;15.588;2024-03-02T05:33:07;96770.86;;;8.58;95.14
73106;BME280;61559;50.476;15.588;2024-03-02T05:35:36;96771.48;;;8.53;95.42
73106;BME280;61559;50.476;15.588;2024-03-02T05:38:07;96778.21;;;8.49;95.40
73106;BME280;61559;50.476;15.588;2024-03-02T05:40:37;96776.21;;;8.48;95.60
73106;BME280;61559;50.476;15.588;2024-03-02T05:43:08;96779.33;;;8.47;95.55
73106;BME280;61559;50.476;15.588;2024-03-02T05:45:37;96779.11;;;8.47;95.60
73106;BME280;61559;50.476;15.588;2024-03-02T05:48:10;96776.20;;;8.46;95.81
73106;BME280;61559;50.476;15.588;2024-03-02T05:50:41;96778.02;;;8.45;95.91
73106;BME280;61559;50.476;15.588;2024-03-02T05:53:12;96773.48;;;8.44;95.88
73106;BME280;61559;50.476;15.588;2024-03-02T05:55:45;96779.29;;;8.44;95.91
73106;BME280;61559;50.476;15.588;2024-03-02T05:58:16;96779.77;;;8.44;95.83
73106;BME280;61559;50.476;15.588;2024-03-02T06:00:57;96782.13;;;8.44;95.81
73106;BME280;61559;50.476;15.588;2024-03-02T06:03:29;96782.94;;;8.44;95.80
73106;BME280;61559;50.476;15.588;2024-03-02T06:06:00;96787.50;;;8.44;95.76
73106;BME280;61559;50.476;15.588;2024-03-02T06:08:31;96790.90;;;8.45;95.73
73106;BME280;61559;50.476;15.588;2024-03-02T06:11:03;96792.08;;;8.45;95.80
73106;BME280;61559;50.476;15.588;2024-03-02T06:13:35;96797.39;;;8.46;95.85
73106;BME280;61559;50.476;15.588;2024-03-02T06:16:07;96797.81;;;8.46;95.86
73106;BME280;61559;50.476;15.588;2024-03-02T06:18:39;96798.72;;;8.46;95.95
73106;BME280;61559;50.476;15.588;2024-03-02T06:21:10;96801.41;;;8.46;95.92
73106;BME280;61559;50.476;15.588;2024-03-02T06:23:41;96804.23;;;8.45;95.81
73106;BME280;61559;50.476;15.588;2024-03-02T06:26:11;96805.59;;;8.42;95.83
73106;BME280;61559;50.476;15.588;2024-03-02T06:28:42;96807.77;;;8.38;96.01
73106;BME280;61559;50.476;15.588;2024-03-02T06:31:13;96816.02;;;8.39;96.12
73106;BME280;61559;50.476;15.588;2024-03-02T06:33:45;96814.02;;;8.40;96.17
73106;BME280;61559;50.476;15.588;2024-03-02T06:36:16;96818.83;;;8.41;96.23
73106;BME280;61559;50.476;15.588;2024-03-02T06:38:45;96820.96;;;8.40;96.19
73106;BME280;61559;50.476;15.588;2024-03-02T06:41:16;96818.05;;;8.36;96.39
73106;BME280;61559;50.476;15.588;2024-03-02T06:43:47;96820.61;;;8.36;96.44
73106;BME280;61559;50.476;15.588;2024-03-02T06:46:19;96823.14;;;8.37;96.36
73106;BME280;61559;50.476;15.588;2024-03-02T06:48:50;96829.17;;;8.40;96.41
73106;BME280;61559;50.476;15.588;2024-03-02T06:51:21;96832.27;;;8.42;96.49
73106;BME280;61559;50.476;15.588;2024-03-02T06:53:52;96834.23;;;8.43;96.46
73106;BME280;61559;50.476;15.588;2024-03-02T06:56:22;96839.93;;;8.45;96.48
73106;BME280;61559;50.476;15.588;2024-03-02T06:58:54;96840.81;;;8.44;96.45
73106;BME280;61559;50.476;15.588;2024-03-02T07:01:25;96839.08;;;8.45;96.14
73106;BME280;61559;50.476;15.588;2024-03-02T07:03:57;96841.52;;;8.48;96.03
73106;BME280;61559;50.476;15.588;2024-03-02T07:06:29;96841.81;;;8.51;96.01
73106;BME280;61559;50.476;15.588;2024-03-02T07:09:00;96838.47;;;8.56;96.08
73106;BME280;61559;50.476;15.588;2024-03-02T07:11:32;96839.75;;;8.59;96.03
73106;BME280;61559;50.476;15.588;2024-03-02T07:14:06;96839.84;;;8.60;96.04
73106;BME280;61559;50.476;15.588;2024-03-02T07:16:35;96837.81;;;8.62;95.80
73106;BME280;61559;50.476;15.588;2024-03-02T07:19:09;96837.48;;;8.63;95.48
73106;BME280;61559;50.476;15.588;2024-03-02T07:21:40;96835.48;;;8.67;95.19
73106;BME280;61559;50.476;15.588;2024-03-02T07:24:12;96834.89;;;8.67;94.12
73106;BME280;61559;50.476;15.588;2024-03-02T07:26:53;96832.23;;;8.69;93.81
73106;BME280;61559;50.476;15.588;2024-03-02T07:29:25;96830.01;;;8.72;93.48
73106;BME280;61559;50.476;15.588;2024-03-02T07:31:56;96825.61;;;8.74;93.30
73106;BME280;61559;50.476;15.588;2024-03-02T07:34:27;96829.38;;;8.76;92.86
73106;BME280;61559;50.476;15.588;2024-03-02T07:36:59;96833.78;;;8.78;92.80
73106;BME280;61559;50.476;15.588;2024-03-02T07:39:30;96836.55;;;8.80;92.40
73106;BME280;61559;50.476;15.588;2024-03-02T07:42:01;96834.34;;;8.80;92.00
73106;BME280;61559;50.476;15.588;2024-03-02T07:44:33;96835.70;;;8.82;91.85
73106;BME280;61559;50.476;15.588;2024-03-02T07:47:05;96840.66;;;8.84;91.33
73106;BME280;61559;50.476;15.588;2024-03-02T07:49:36;96845.18;;;8.87;91.49
73106;BME280;61559;50.476;15.588;2024-03-02T07:52:07;96847.94;;;8.92;91.59
73106;BME280;61559;50.476;15.588;2024-03-02T07:54:38;96844.92;;;8.98;91.35
73106;BME280;61559;50.476;15.588;2024-03-02T07:57:09;96843.86;;;9.03;91.21
73106;BME280;61559;50.476;15.588;2024-03-02T07:59:41;96849.77;;;9.06;90.56
73106;BME280;61559;50.476;15.588;2024-03-02T08:02:13;96855.36;;;9.10;90.41
73106;BME280;61559;50.476;15.588;2024-03-02T08:04:44;96863.58;;;9.14;90.04
73106;BME280;61559;50.476;15.588;2024-03-02T08:07:16;96869.37;;;9.18;89.69
73106;BME280;61559;50.476;15.588;2024-03-02T08:09:47;96871.21;;;9.23;89.45
73106;BME280;61559;50.476;15.588;2024-03-02T08:12:19;96876.42;;;9.25;89.07
73106;BME280;61559;50.476;15.588;2024-03-02T08:14:53;96878.31;;;9.30;89.65
73106;BME280;61559;50.476;15.588;2024-03-02T08:17:24;96885.41;;;9.35;89.90
73106;BME280;61559;50.476;15.588;2024-03-02T08:19:55;96886.95;;;9.39;89.39
73106;BME280;61559;50.476;15.588;2024-03-02T08:22:27;96884.20;;;9.43;88.72
73106;BME280;61559;50.476;15.588;2024-03-02T08:24:58;96881.57;;;9.47;88.66
73106;BME280;61559;50.476;15.588;2024-03-02T08:27:32;96882.90;;;9.51;88.33
73106;BME280;61559;50.476;15.588;2024-03-02T08:30:04;96882.15;;;9.56;88.46
73106;BME280;61559;50.476;15.588;2024-03-02T08:32:37;96883.36;;;9.63;88.47
73106;BME280;61559;50.476;15.588;2024-03-02T08:35:09;96884.63;;;9.72;88.27
73106;BME280;61559;50.476;15.588;2024-03-02T08:37:42;96883.34;;;9.77;87.81
73106;BME280;61559;50.476;15.588;2024-03-02T08:40:15;96880.40;;;9.85;87.81
73106;BME280;61559;50.476;15.588;2024-03-02T08:42:48;96880.67;;;9.90;86.54
73106;BME280;61559;50.476;15.588;2024-03-02T08:45:20;96881.08;;;9.89;85.52
73106;BME280;61559;50.476;15.588;2024-03-02T08:47:51;96883.64;;;9.88;85.85
73106;BME280;61559;50.476;15.588;2024-03-02T08:50:22;96890.48;;;9.91;85.68
73106;BME280;61559;50.476;15.588;2024-03-02T08:52:54;96893.17;;;9.95;85.72
73106;BME280;61559;50.476;15.588;2024-03-02T08:55:25;96889.17;;;10.00;85.21
73106;BME280;61559;50.476;15.588;2024-03-02T08:57:56;96889.55;;;10.02;84.99
73106;BME280;61559;50.476;15.588;2024-03-02T09:00:28;96886.60;;;10.06;84.97
73106;BME280;61559;50.476;15.588;2024-03-02T09:02:59;96886.24;;;10.09;84.15
73106;BME280;61559;50.476;15.588;2024-03-02T09:05:30;96887.84;;;10.13;84.46
73106;BME280;61559;50.476;15.588;2024-03-02T09:08:02;96888.58;;;10.17;84.17
73106;BME280;61559;50.476;15.588;2024-03-02T09:10:34;96885.63;;;10.23;84.10
73106;BME280;61559;50.476;15.588;2024-03-02T09:13:05;96885.40;;;10.29;83.94
73106;BME280;61559;50.476;15.588;2024-03-02T09:15:36;96883.11;;;10.35;83.80
73106;BME280;61559;50.476;15.588;2024-03-02T09:18:09;96887.11;;;10.42;83.68
73106;BME280;61559;50.476;15.588;2024-03-02T09:20:42;96889.73;;;10.45;83.29
73106;BME280;61559;50.476;15.588;2024-03-02T09:23:13;96890.86;;;10.46;82.61
73106;BME280;61559;50.476;15.588;2024-03-02T09:25:44;96889.53;;;10.49;82.91
73106;BME280;61559;50.476;15.588;2024-03-02T09:28:16;96891.36;;;10.51;82.62
73106;BME280;61559;50.476;15.588;2024-03-02T09:30:48;96887.23;;;10.48;81.97
73106;BME280;61559;50.476;15.588;2024-03-02T09:33:19;96890.10;;;10.50;82.52
73106;BME280;61559;50.476;15.588;2024-03-02T09:35:50;96893.90;;;10.55;82.54
73106;BME280;61559;50.476;15.588;2024-03-02T09:38:23;96890.95;;;10.61;82.75
73106;BME280;61559;50.476;15.588;2024-03-02T09:40:54;96892.59;;;10.69;82.86
73106;BME280;61559;50.476;15.588;2024-03-02T09:43:26;96891.49;;;10.76;82.48
73106;BME280;61559;50.476;15.588;2024-03-02T09:45:57;96886.50;;;10.79;81.27
73106;BME280;61559;50.476;15.588;2024-03-02T09:48:30;96885.98;;;10.81;81.61
73106;BME280;61559;50.476;15.588;2024-03-02T09:51:01;96884.27;;;10.88;82.27
73106;BME280;61559;50.476;15.588;2024-03-02T09:53:35;96885.92;;;10.94;81.64
73106;BME280;61559;50.476;15.588;2024-03-02T09:56:06;96884.70;;;10.97;81.28
73106;BME280;61559;50.476;15.588;2024-03-02T09:58:37;96878.58;;;11.02;81.07
73106;BME280;61559;50.476;15.588;2024-03-02T10:01:09;96878.70;;;11.06;80.54
73106;BME280;61559;50.476;15.588;2024-03-02T10:03:41;96881.92;;;11.08;80.43
73106;BME280;61559;50.476;15.588;2024-03-02T10:06:22;96881.70;;;11.10;80.59
73106;BME280;61559;50.476;15.588;2024-03-02T10:08:54;96881.79;;;11.11;79.85
73106;BME280;61559;50.476;15.588;2024-03-02T10:11:30;96882.45;;;11.08;79.55
73106;BME280;61559;50.476;15.588;2024-03-02T10:14:10;96884.95;;;11.03;78.75
73106;BME280;61559;50.476;15.588;2024-03-02T10:16:43;96885.21;;;11.00;79.26
73106;BME280;61559;50.476;15.588;2024-03-02T10:19:19;96880.80;;;11.03;79.68
73106;BME280;61559;50.476;15.588;2024-03-02T10:21:51;96881.13;;;11.08;79.64
73106;BME280;61559;50.476;15.588;2024-03-02T10:24:24;96880.34;;;11.14;79.69
73106;BME280;61559;50.476;15.588;2024-03-02T10:26:55;96879.69;;;11.20;79.53
73106;BME280;61559;50.476;15.588;2024-03-02T10:29:28;96876.83;;;11.23;79.25
73106;BME280;61559;50.476;15.588;2024-03-02T10:32:04;96874.65;;;11.27;78.98
73106;BME280;61559;50.476;15.588;2024-03-02T10:34:36;96874.00;;;11.38;79.52
73106;BME280;61559;50.476;15.588;2024-03-02T10:37:10;96870.00;;;11.51;79.41
73106;BME280;61559;50.476;15.588;2024-03-02T10:39:41;96866.23;;;11.61;78.48
73106;BME280;61559;50.476;15.588;2024-03-02T10:42:13;96863.71;;;11.69;78.54
73106;BME280;61559;50.476;15.588;2024-03-02T10:44:46;96862.36;;;11.73;77.31
73106;BME280;61559;50.476;15.588;2024-03-02T10:47:19;96862.99;;;11.75;77.31
73106;BME280;61559;50.476;15.588;2024-03-02T10:49:52;96865.26;;;11.84;77.81
73106;BME280;61559;50.476;15.588;2024-03-02T10:52:24;96862.47;;;11.96;77.72
73106;BME280;61559;50.476;15.588;2024-03-02T10:54:55;96861.02;;;12.06;76.75
73106;BME280;61559;50.476;15.588;2024-03-02T10:57:28;96856.45;;;12.09;75.83
73106;BME280;61559;50.476;15.588;2024-03-02T11:00:06;96859.13;;;12.14;75.91
73106;BME280;61559;50.476;15.588;2024-03-02T11:02:51;96860.45;;;12.13;74.93
73106;BME280;61559;50.476;15.588;2024-03-02T11:05:28;96857.81;;;12.14;75.91
73106;BME280;61559;50.476;15.588;2024-03-02T11:08:02;96859.56;;;12.20;75.72
73106;BME280;61559;50.476;15.588;2024-03-02T11:10:41;96859.19;;;12.26;75.57
73106;BME280;61559;50.476;15.588;2024-03-02T11:13:19;96853.45;;;12.29;74.72
73106;BME280;61559;50.476;15.588;2024-03-02T11:15:56;96857.33;;;12.31;74.71
73106;BME280;61559;50.476;15.588;2024-03-02T11:18:30;96856.42;;;12.33;74.80
73106;BME280;61559;50.476;15.588;2024-03-02T11:21:04;96855.64;;;12.34;74.38
73106;BME280;61559;50.476;15.588;2024-03-02T11:23:36;96858.46;;;12.32;74.21
73106;BME280;61559;50.476;15.588;2024-03-02T11:26:19;96852.41;;;12.29;73.57
73106;BME280;61559;50.476;15.588;2024-03-02T11:28:52;96848.64;;;12.19;73.12
73106;BME280;61559;50.476;15.588;2024-03-02T11:31:23;96850.89;;;12.14;73.62
73106;BME280;61559;50.476;15.588;2024-03-02T11:34:30;96845.65;;;12.15;74.33
73106;BME280;61559;50.476;15.588;2024-03-02T11:37:02;96842.95;;;12.16;74.66
73106;BME280;61559;50.476;15.588;2024-03-02T11:39:35;96837.04;;;12.18;74.58
73106;BME280;61559;50.476;15.588;2024-03-02T11:42:08;96840.39;;;12.20;74.95
73106;BME280;61559;50.476;15.588;2024-03-02T11:44:42;96839.48;;;12.25;74.62
73106;BME280;61559;50.476;15.588;2024-03-02T11:47:16;96836.40;;;12.32;74.66
73106;BME280;61559;50.476;15.588;2024-03-02T11:49:50;96834.23;;;12.36;74.74
73106;BME280;61559;50.476;15.588;2024-03-02T11:52:23;96834.06;;;12.42;74.78
73106;BME280;61559;50.476;15.588;2024-03-02T11:54:56;96834.09;;;12.46;74.63
73106;BME280;61559;50.476;15.588;2024-03-02T11:57:27;96837.76;;;12.48;74.50
73106;BME280;61559;50.476;15.588;2024-03-02T12:00:01;96835.10;;;12.49;74.20
73106;BME280;61559;50.476;15.588;2024-03-02T12:02:33;96836.58;;;12.45;73.69
73106;BME280;61559;50.476;15.588;2024-03-02T12:05:06;96837.86;;;12.43;74.14
73106;BME280;61559;50.476;15.588;2024-03-02T12:07:38;96835.50;;;12.43;73.98
73106;BME280;61559;50.476;15.588;2024-03-02T12:10:10;96835.70;;;12.42;74.03
73106;BME280;61559;50.476;15.588;2024-03-02T12:12:41;96831.52;;;12.40;73.69
73106;BME280;61559;50.476;15.588;2024-03-02T12:15:12;96832.71;;;12.35;73.65
73106;BME280;61559;50.476;15.588;2024-03-02T12:17:43;96828.38;;;12.33;73.93
73106;BME280;61559;50.476;15.588;2024-03-02T12:20:15;96828.33;;;12.37;74.41
73106;BME280;61559;50.476;15.588;2024-03-02T12:22:46;96828.05;;;12.40;74.62
73106;BME280;61559;50.476;15.588;2024-03-02T12:25:18;96828.45;;;12.45;74.19
73106;BME280;61559;50.476;15.588;2024-03-02T12:27:50;96825.02;;;12.47;74.13
73106;BME280;61559;50.476;15.588;2024-03-02T12:30:23;96825.69;;;12.51;74.02
73106;BME280;61559;50.476;15.588;2024-03-02T12:32:55;96822.67;;;12.51;74.03
73106;BME280;61559;50.476;15.588;2024-03-02T12:35:27;96827.38;;;12.53;74.28
73106;BME280;61559;50.476;15.588;2024-03-02T12:37:58;96825.88;;;12.55;74.19
73106;BME280;61559;50.476;15.588;2024-03-02T12:40:31;96825.88;;;12.55;74.50
73106;BME280;61559;50.476;15.588;2024-03-02T12:43:03;96831.23;;;12.58;74.57
73106;BME280;61559;50.476;15.588;2024-03-02T12:45:35;96829.84;;;12.61;74.74
73106;BME280;61559;50.476;15.588;2024-03-02T12:48:07;96826.44;;;12.64;74.52
73106;BME280;61559;50.476;15.588;2024-03-02T12:50:38;96826.77;;;12.65;73.92
73106;BME280;61559;50.476;15.588;2024-03-02T12:53:16;96823.08;;;12.65;74.02
73106;BME280;61559;50.476;15.588;2024-03-02T12:55:47;96820.17;;;12.64;73.52
73106;BME280;61559;50.476;15.588;2024-03-02T12:58:20;96817.96;;;12.61;73.35
73106;BME280;61559;50.476;15.588;2024-03-02T13:00:55;96815.80;;;12.60;73.87
73106;BME280;61559;50.476;15.588;2024-03-02T13:03:38;96817.13;;;12.60;73.17
73106;BME280;61559;50.476;15.588;2024-03-02T13:06:09;96817.27;;;12.53;73.67
73106;BME280;61559;50.476;15.588;2024-03-02T13:08:40;96812.93;;;12.51;73.60
73106;BME280;61559;50.476;15.588;2024-03-02T13:11:11;96813.41;;;12.49;73.51
73106;BME280;61559;50.476;15.588;2024-03-02T13:13:42;96814.75;;;12.49;73.74
73106;BME280;61559;50.476;15.588;2024-03-02T13:16:13;96809.48;;;12.52;73.38
73106;BME280;61559;50.476;15.588;2024-03-02T13:18:46;96808.24;;;12.49;73.43
73106;BME280;61559;50.476;15.588;2024-03-02T13:21:17;96805.52;;;12.50;73.53
73106;BME280;61559;50.476;15.588;2024-03-02T13:23:48;96805.77;;;12.51;73.55